Time;durP1;ratioP1;P1;durP2;ratioP2;P2;SDS_P1;SDS_P2;PMS_P1;PMS_P2;Temp;Humidity;BMP_temperature;BMP_pressure;BME280_temperature;BME280_humidity;BME280_pressure;Samples;Min_cycle;Max_cycle;Signal;HPM_P1;HPM_P2
2021/09/08 00:01:25;;;;;;;;;;;12.80;92.70;;;;;;5094687;28;20028;-78
2021/09/08 00:03:51;;;;;;;5.07;2.80;;;12.80;92.50;;;;;;5093843;28;19957;-80
2021/09/08 00:06:17;;;;;;;4.97;2.83;;;12.90;92.40;;;;;;5091121;28;20110;-78
2021/09/08 00:08:46;;;;;;;3.60;2.35;;;12.90;92.20;;;;;;5089632;28;20088;-79
2021/09/08 00:11:12;;;;;;;10.65;3.25;;;12.90;92.10;;;;;;5092239;28;20044;-80
2021/09/08 00:13:37;;;;;;;5.50;2.92;;;12.90;92.10;;;;;;5099922;28;20031;-78
2021/09/08 00:16:04;;;;;;;4.53;2.75;;;12.90;92.10;;;;;;5113187;28;20422;-78
2021/09/08 00:18:30;;;;;;;4.50;2.70;;;12.90;91.90;;;;;;5106788;28;20020;-78
2021/09/08 00:20:55;;;;;;;3.40;2.42;;;12.90;91.90;;;;;;5093123;28;20397;-80
2021/09/08 00:23:21;;;;;;;3.80;2.90;;;12.80;91.80;;;;;;5094710;28;20481;-80
2021/09/08 00:25:47;;;;;;;5.20;2.78;;;12.90;91.80;;;;;;5107646;28;20046;-81
2021/09/08 00:28:13;;;;;;;6.22;2.83;;;12.80;91.80;;;;;;5090854;28;20024;-80
2021/09/08 00:30:39;;;;;;;3.75;2.75;;;12.80;91.80;;;;;;5092962;28;20020;-80
2021/09/08 00:33:04;;;;;;;4.57;2.65;;;12.80;91.90;;;;;;5097023;28;20028;-81
2021/09/08 00:35:30;;;;;;;6.75;2.42;;;12.80;92.10;;;;;;5096937;28;20031;-81
2021/09/08 00:37:56;;;;;;;4.68;2.75;;;12.80;91.80;;;;;;5093410;28;20027;-81
2021/09/08 00:40:23;;;;;;;5.90;2.83;;;12.80;91.80;;;;;;5106851;28;20365;-81
2021/09/08 00:42:49;;;;;;;6.13;2.75;;;12.70;91.80;;;;;;5112961;28;20031;-82
2021/09/08 00:45:15;;;;;;;5.75;2.88;;;12.80;91.80;;;;;;5111868;28;20043;-80
2021/09/08 00:47:41;;;;;;;3.30;2.30;;;12.80;91.80;;;;;;5112040;28;20024;-82
2021/09/08 00:50:09;;;;;;;5.47;2.55;;;12.80;91.80;;;;;;5098920;28;20027;-81
2021/09/08 00:52:37;;;;;;;6.13;2.80;;;12.70;91.80;;;;;;5106761;28;20304;-82
2021/09/08 00:55:04;;;;;;;9.00;2.78;;;12.70;91.90;;;;;;5109140;28;20104;-81
2021/09/08 00:57:32;;;;;;;5.32;2.88;;;12.70;91.90;;;;;;5102986;28;20385;-81
2021/09/08 00:59:58;;;;;;;;;;;12.60;91.80;;;;;;5109760;28;20445;-81
2021/09/08 01:02:24;;;;;;;3.90;2.47;;;12.60;91.80;;;;;;5096345;28;19908;-80
2021/09/08 01:04:49;;;;;;;4.43;2.50;;;12.60;91.90;;;;;;5105452;28;20023;-82
2021/09/08 01:07:15;;;;;;;3.95;2.50;;;12.60;91.90;;;;;;5103379;28;20016;-82
2021/09/08 01:09:41;;;;;;;3.75;2.60;;;12.70;91.90;;;;;;5101966;28;20094;-81
2021/09/08 01:12:08;;;;;;;6.85;2.55;;;12.60;91.90;;;;;;5102913;28;20110;-81
2021/09/08 01:14:34;;;;;;;4.68;2.60;;;12.60;91.90;;;;;;5096966;28;20469;-82
2021/09/08 01:16:59;;;;;;;4.47;2.55;;;12.70;92.10;;;;;;5093131;28;20103;-82
2021/09/08 01:19:25;;;;;;;4.95;2.78;;;12.60;91.80;;;;;;5092870;28;20102;-80
2021/09/08 01:21:52;;;;;;;5.45;3.13;;;12.60;91.80;;;;;;5092973;28;20035;-81
2021/09/08 01:24:18;;;;;;;4.13;2.67;;;12.70;91.70;;;;;;5091793;28;20073;-83
2021/09/08 01:26:47;;;;;;;5.20;2.55;;;12.60;91.70;;;;;;5097606;28;20047;-81
2021/09/08 01:29:13;;;;;;;3.63;2.60;;;12.60;91.70;;;;;;5100769;28;20023;-81
2021/09/08 01:31:39;;;;;;;6.78;2.38;;;12.60;91.70;;;;;;5093961;28;20016;-81
2021/09/08 01:34:05;;;;;;;4.55;2.88;;;12.60;91.80;;;;;;5094273;28;20057;-81
2021/09/08 01:36:39;;;;;;;6.22;2.22;;;12.50;91.80;;;;;;5092973;28;20118;-81
2021/09/08 01:39:05;;;;;;;5.97;2.55;;;12.50;91.80;;;;;;5093680;28;20093;-80
2021/09/08 01:41:31;;;;;;;4.50;2.75;;;12.50;91.90;;;;;;5092895;28;20043;-82
2021/09/08 01:43:57;;;;;;;4.30;2.75;;;12.50;92.00;;;;;;5092508;28;20485;-81
2021/09/08 01:46:23;;;;;;;6.15;3.03;;;12.50;92.20;;;;;;5092723;28;20035;-82
2021/09/08 01:48:50;;;;;;;4.00;2.80;;;12.40;92.20;;;;;;5092352;28;20069;-79
2021/09/08 01:51:16;;;;;;;4.70;2.30;;;12.40;92.10;;;;;;5092321;28;20504;-81
2021/09/08 01:53:42;;;;;;;4.50;2.72;;;12.40;92.10;;;;;;5092702;28;20046;-81
2021/09/08 01:56:08;;;;;;;4.05;2.53;;;12.40;92.20;;;;;;5091393;28;20016;-82
2021/09/08 01:58:35;;;;;;;3.50;2.53;;;12.40;92.20;;;;;;5093300;28;20024;-80
2021/09/08 02:01:01;;;;;;;5.88;2.88;;;12.40;92.20;;;;;;5092403;28;20020;-81
2021/09/08 02:03:27;;;;;;;5.55;2.78;;;12.40;92.30;;;;;;5092139;28;20149;-81
2021/09/08 02:05:52;;;;;;;2.92;2.15;;;12.40;92.40;;;;;;5092000;28;20087;-82
2021/09/08 02:08:18;;;;;;;6.93;2.30;;;12.30;92.30;;;;;;5092237;28;20485;-81
2021/09/08 02:10:44;;;;;;;4.00;2.47;;;12.30;92.40;;;;;;5091943;28;20034;-81
2021/09/08 02:13:10;;;;;;;4.28;2.67;;;12.30;92.40;;;;;;5091932;28;20366;-82
2021/09/08 02:15:36;;;;;;;4.75;2.10;;;12.30;92.40;;;;;;5092251;28;20026;-82
2021/09/08 02:18:01;;;;;;;5.70;2.50;;;12.30;92.40;;;;;;5092336;28;20032;-81
2021/09/08 02:20:27;;;;;;;5.25;2.42;;;12.30;92.40;;;;;;5092061;28;20354;-82
2021/09/08 02:22:53;;;;;;;5.55;2.30;;;12.30;92.50;;;;;;5106237;28;20031;-81
2021/09/08 02:25:19;;;;;;;7.45;2.60;;;12.30;92.50;;;;;;5092016;28;20095;-81
2021/09/08 02:27:45;;;;;;;6.65;2.40;;;12.30;92.50;;;;;;5091985;28;20036;-82
2021/09/08 02:30:12;;;;;;;2.92;2.22;;;12.30;92.50;;;;;;5091955;28;20377;-79
2021/09/08 02:32:38;;;;;;;4.10;2.77;;;12.30;92.50;;;;;;5092014;28;20016;-82
2021/09/08 02:35:05;;;;;;;6.13;3.13;;;12.30;92.50;;;;;;5092029;28;20369;-81
2021/09/08 02:37:31;;;;;;;3.53;2.30;;;12.30;92.50;;;;;;5092573;28;20032;-81
2021/09/08 02:39:57;;;;;;;7.88;3.42;;;12.30;92.50;;;;;;5091974;28;20123;-81
2021/09/08 02:42:23;;;;;;;4.32;2.00;;;12.30;92.60;;;;;;5099481;28;20023;-80
2021/09/08 02:44:49;;;;;;;4.75;2.40;;;12.30;92.40;;;;;;5103191;28;20032;-81
2021/09/08 02:47:16;;;;;;;2.85;2.42;;;12.30;92.50;;;;;;5094255;28;20031;-81
2021/09/08 02:49:42;;;;;;;5.13;2.38;;;12.30;92.70;;;;;;5096467;28;20016;-81
2021/09/08 02:52:08;;;;;;;4.40;2.33;;;12.30;92.50;;;;;;5095979;28;20020;-82
2021/09/08 02:54:35;;;;;;;5.00;2.90;;;12.30;92.50;;;;;;5095720;28;20366;-81
2021/09/08 02:57:01;;;;;;;7.70;3.23;;;12.30;92.60;;;;;;5093901;28;20031;-82
2021/09/08 02:59:27;;;;;;;3.05;2.28;;;12.30;92.70;;;;;;5094221;28;20388;-80
2021/09/08 03:01:53;;;;;;;5.85;3.38;;;12.30;92.60;;;;;;5095441;28;20103;-81
2021/09/08 03:04:19;;;;;;;5.03;2.70;;;12.30;92.70;;;;;;5095400;28;20521;-81
2021/09/08 03:06:47;;;;;;;4.28;2.67;;;12.20;92.70;;;;;;5095405;28;20099;-82
2021/09/08 03:09:14;;;;;;;5.28;3.65;;;12.30;92.70;;;;;;5094911;28;20129;-81
2021/09/08 03:11:40;;;;;;;6.13;4.00;;;12.20;92.70;;;;;;5093545;28;20515;-81
2021/09/08 03:14:06;;;;;;;5.80;3.47;;;12.20;92.80;;;;;;5095022;28;20020;-81
2021/09/08 03:16:32;;;;;;;8.35;5.22;;;12.30;92.90;;;;;;5094820;28;20514;-80
2021/09/08 03:18:58;;;;;;;5.82;3.75;;;12.30;93.00;;;;;;5095012;28;20024;-80
2021/09/08 03:21:23;;;;;;;10.02;4.07;;;12.30;92.90;;;;;;5094737;28;20024;-80
2021/09/08 03:23:49;;;;;;;5.93;3.50;;;12.30;92.90;;;;;;5093678;28;20032;-80
2021/09/08 03:26:15;;;;;;;5.22;2.80;;;12.30;92.90;;;;;;5094110;28;20366;-80
2021/09/08 03:28:41;;;;;;;4.20;3.15;;;12.30;92.90;;;;;;5102464;28;20035;-81
2021/09/08 03:31:07;;;;;;;4.35;3.25;;;12.30;92.90;;;;;;5107720;28;20355;-81
2021/09/08 03:33:33;;;;;;;4.85;3.60;;;12.30;92.90;;;;;;5097897;28;20393;-81
2021/09/08 03:35:58;;;;;;;4.93;2.78;;;12.30;93.00;;;;;;5095675;28;20027;-80
2021/09/08 03:38:24;;;;;;;6.30;3.15;;;12.30;92.80;;;;;;5094620;28;20043;-80
2021/09/08 03:40:50;;;;;;;4.80;2.80;;;12.30;93.00;;;;;;5093447;28;20117;-80
2021/09/08 03:43:16;;;;;;;3.63;2.67;;;12.30;92.70;;;;;;5094583;28;20044;-82
2021/09/08 03:45:42;;;;;;;5.53;2.92;;;12.20;92.70;;;;;;5094234;28;20020;-81
2021/09/08 03:48:08;;;;;;;6.20;2.47;;;12.20;92.60;;;;;;5094403;28;20024;-81
2021/09/08 03:50:34;;;;;;;5.38;3.03;;;12.20;92.50;;;;;;5094000;28;20020;-80
2021/09/08 03:52:59;;;;;;;6.45;3.60;;;12.20;92.60;;;;;;5094484;28;20020;-81
2021/09/08 03:55:25;;;;;;;7.47;3.38;;;12.10;92.60;;;;;;5092389;28;20385;-81
2021/09/08 03:57:51;;;;;;;7.28;3.75;;;12.10;92.60;;;;;;5094416;28;20473;-83
2021/09/08 04:00:17;;;;;;;4.85;3.03;;;12.20;92.60;;;;;;5093828;28;20020;-80
2021/09/08 04:02:43;;;;;;;5.47;2.83;;;12.20;92.50;;;;;;5093927;28;20061;-82
2021/09/08 04:05:09;;;;;;;5.00;3.47;;;12.30;92.40;;;;;;5093957;28;20104;-82
2021/09/08 04:07:36;;;;;;;4.60;3.47;;;12.30;92.30;;;;;;5094170;28;20020;-80
2021/09/08 04:10:02;;;;;;;4.00;2.65;;;12.30;92.20;;;;;;5092933;28;20389;-80
2021/09/08 04:12:28;;;;;;;5.50;2.97;;;12.40;92.20;;;;;;5093700;28;20044;-81
2021/09/08 04:14:54;;;;;;;6.60;3.05;;;12.40;92.20;;;;;;5093899;28;20023;-81
2021/09/08 04:17:20;;;;;;;4.43;3.42;;;12.50;92.20;;;;;;5095326;28;20057;-81
2021/09/08 04:19:46;;;;;;;6.67;3.73;;;12.50;91.90;;;;;;5095469;28;20027;-82
2021/09/08 04:22:12;;;;;;;5.40;3.20;;;12.60;91.70;;;;;;5094103;28;20098;-81
2021/09/08 04:24:38;;;;;;;5.00;3.42;;;12.60;91.60;;;;;;5089700;28;20058;-80
2021/09/08 04:27:04;;;;;;;7.25;3.17;;;12.60;91.50;;;;;;5088067;28;20052;-80
2021/09/08 04:29:30;;;;;;;5.43;3.10;;;12.60;91.50;;;;;;5101894;28;20028;-79
2021/09/08 04:31:55;;;;;;;6.90;3.50;;;12.70;91.40;;;;;;5109853;28;20031;-81
2021/09/08 04:34:21;;;;;;;5.53;3.45;;;12.70;91.20;;;;;;5112237;28;20047;-80
2021/09/08 04:36:47;;;;;;;5.65;2.90;;;12.70;91.10;;;;;;5110443;28;20043;-79
2021/09/08 04:39:13;;;;;;;6.90;3.97;;;12.70;91.10;;;;;;5113243;28;20094;-80
2021/09/08 04:41:39;;;;;;;5.32;3.13;;;12.80;90.90;;;;;;5099249;28;20035;-82
2021/09/08 04:44:05;;;;;;;5.10;3.55;;;12.80;90.80;;;;;;5102043;28;20032;-81
2021/09/08 04:46:30;;;;;;;5.13;3.13;;;12.80;90.70;;;;;;5111481;28;20059;-80
2021/09/08 04:48:56;;;;;;;6.95;3.33;;;12.80;90.60;;;;;;5109555;28;20043;-83
2021/09/08 04:51:23;;;;;;;5.80;3.00;;;12.80;90.50;;;;;;5108143;28;20066;-80
2021/09/08 04:53:48;;;;;;;6.78;3.20;;;12.80;90.50;;;;;;5109418;28;20020;-80
2021/09/08 04:56:14;;;;;;;5.00;3.47;;;12.80;90.50;;;;;;5111438;28;20103;-80
2021/09/08 04:58:40;;;;;;;3.70;3.20;;;12.80;90.40;;;;;;5105740;28;20032;-82
2021/09/08 05:01:06;;;;;;;7.53;3.15;;;12.80;90.40;;;;;;5089676;28;20457;-79
2021/09/08 05:03:32;;;;;;;5.65;3.20;;;12.80;90.50;;;;;;5098563;28;20036;-80
2021/09/08 05:05:59;;;;;;;7.45;3.22;;;12.80;90.40;;;;;;5109903;28;20012;-83
2021/09/08 05:08:25;;;;;;;4.85;2.90;;;12.80;90.40;;;;;;5111222;28;20040;-81
2021/09/08 05:10:51;;;;;;;5.80;3.42;;;12.90;90.20;;;;;;5096032;28;20093;-80
2021/09/08 05:13:16;;;;;;;4.13;3.28;;;13.00;90.10;;;;;;5092634;28;20016;-81
2021/09/08 05:15:42;;;;;;;4.60;2.70;;;13.10;90.10;;;;;;5087145;28;20058;-80
2021/09/08 05:18:08;;;;;;;7.18;3.90;;;13.30;89.90;;;;;;5079232;28;20024;-79
2021/09/08 05:20:34;;;;;;;5.22;3.72;;;13.40;89.60;;;;;;5096600;28;20473;-81
2021/09/08 05:23:00;;;;;;;5.85;3.15;;;13.50;88.80;;;;;;5095687;28;20836;-81
2021/09/08 05:25:25;;;;;;;6.65;3.03;;;13.60;88.20;;;;;;5100908;28;20391;-82
2021/09/08 05:27:51;;;;;;;5.13;3.53;;;13.70;87.90;;;;;;5097908;28;20024;-81
2021/09/08 05:30:17;;;;;;;9.18;2.78;;;13.80;87.20;;;;;;5103891;28;20380;-82
2021/09/08 05:32:43;;;;;;;6.43;3.30;;;13.90;86.70;;;;;;5098914;28;20020;-81
2021/09/08 05:35:12;;;;;;;5.22;3.20;;;14.10;86.30;;;;;;5105392;28;20030;-82
2021/09/08 05:37:39;;;;;;;4.22;3.03;;;14.20;85.20;;;;;;5102397;28;20059;-81
2021/09/08 05:40:07;;;;;;;9.30;3.45;;;14.30;84.80;;;;;;5099079;28;20032;-81
2021/09/08 05:42:33;;;;;;;8.98;3.10;;;14.30;84.30;;;;;;5097530;28;20023;-82
2021/09/08 05:44:58;;;;;;;11.40;3.42;;;14.40;83.60;;;;;;5092496;28;20481;-81
2021/09/08 05:47:24;;;;;;;5.05;3.00;;;14.60;83.40;;;;;;5102296;28;20099;-82
2021/09/08 05:49:50;;;;;;;7.10;2.88;;;14.60;82.50;;;;;;5097755;28;20100;-81
2021/09/08 05:52:16;;;;;;;8.10;3.28;;;14.60;82.20;;;;;;5078376;28;20109;-81
2021/09/08 05:54:41;;;;;;;4.47;3.35;;;14.50;82.00;;;;;;5092276;28;20020;-81
2021/09/08 05:57:07;;;;;;;8.70;3.83;;;14.50;82.20;;;;;;5092880;28;20055;-83
2021/09/08 05:59:33;;;;;;;6.32;3.25;;;14.60;81.90;;;;;;5092872;28;20048;-81
2021/09/08 06:01:59;;;;;;;8.30;3.13;;;14.90;81.50;;;;;;5092834;28;20427;-83
2021/09/08 06:04:25;;;;;;;4.07;2.60;;;15.10;79.30;;;;;;5092455;28;20353;-82
2021/09/08 06:06:53;;;;;;;2.72;2.30;;;15.20;79.00;;;;;;5091351;28;20024;-81
2021/09/08 06:09:19;;;;;;;4.38;2.90;;;15.50;78.10;;;;;;5092457;28;20377;-81
2021/09/08 06:11:45;;;;;;;5.95;2.45;;;15.80;76.60;;;;;;5090776;28;20040;-82
2021/09/08 06:14:13;;;;;;;3.95;2.80;;;15.90;76.00;;;;;;5093389;28;20032;-79
2021/09/08 06:16:39;;;;;;;3.88;2.83;;;16.10;75.60;;;;;;5092444;28;20109;-82
2021/09/08 06:19:06;;;;;;;7.32;2.80;;;16.20;74.30;;;;;;5095418;28;20024;-81
2021/09/08 06:21:32;;;;;;;6.78;3.20;;;16.30;74.10;;;;;;5096327;28;20020;-81
2021/09/08 06:23:57;;;;;;;7.53;2.78;;;16.50;73.10;;;;;;5096956;28;20077;-82
2021/09/08 06:26:24;;;;;;;8.23;3.10;;;16.50;72.50;;;;;;5097002;28;20030;-82
2021/09/08 06:28:51;;;;;;;4.60;2.60;;;17.00;72.70;;;;;;5096561;28;20028;-81
2021/09/08 06:31:18;;;;;;;6.63;3.50;;;17.80;69.70;;;;;;5096135;28;20021;-80
2021/09/08 06:33:44;;;;;;;8.60;2.92;;;17.90;67.70;;;;;;5096901;28;20070;-79
2021/09/08 06:36:09;;;;;;;6.60;2.50;;;18.00;66.90;;;;;;5094830;28;20095;-81
2021/09/08 06:38:35;;;;;;;5.80;3.30;;;17.30;67.60;;;;;;5094936;28;20119;-84
2021/09/08 06:41:02;;;;;;;10.57;3.65;;;16.90;68.70;;;;;;5096458;28;20027;-83
2021/09/08 06:43:29;;;;;;;4.95;2.85;;;16.50;70.60;;;;;;5098574;28;20054;-80
2021/09/08 06:45:55;;;;;;;11.20;2.83;;;16.40;71.20;;;;;;5097017;28;20028;-81
2021/09/08 06:48:21;;;;;;;5.60;3.05;;;16.20;70.90;;;;;;5095982;28;20035;-80
2021/09/08 06:50:48;;;;;;;4.70;2.90;;;16.00;71.60;;;;;;5095992;28;20496;-82
2021/09/08 06:53:13;;;;;;;8.85;3.33;;;15.70;72.70;;;;;;5096196;28;20108;-81
2021/09/08 06:55:39;;;;;;;9.63;5.00;;;15.60;73.60;;;;;;5095765;28;20091;-79
2021/09/08 06:58:05;;;;;;;12.30;3.70;;;15.60;74.50;;;;;;5095686;28;20024;-80
2021/09/08 07:00:32;;;;;;;9.32;3.08;;;15.70;74.20;;;;;;5096388;28;20024;-82
2021/09/08 07:02:58;;;;;;;8.27;3.97;;;15.60;74.50;;;;;;5104729;28;20031;-80
2021/09/08 07:05:24;;;;;;;10.95;3.85;;;15.70;74.20;;;;;;5100909;28;20025;-82
2021/09/08 07:07:51;;;;;;;11.35;3.45;;;15.70;74.70;;;;;;5095694;28;20055;-78
2021/09/08 07:10:17;;;;;;;7.00;3.37;;;15.70;74.40;;;;;;5094787;28;20020;-81
2021/09/08 07:12:43;;;;;;;7.95;3.38;;;15.70;74.00;;;;;;5095628;28;20276;-80
2021/09/08 07:15:10;;;;;;;5.88;3.47;;;15.70;74.40;;;;;;5095996;28;20543;-80
2021/09/08 07:17:36;;;;;;;6.53;4.22;;;15.60;74.50;;;;;;5097123;28;20050;-81
2021/09/08 07:20:02;;;;;;;9.00;3.88;;;15.70;74.50;;;;;;5094697;28;20028;-80
2021/09/08 07:22:28;;;;;;;7.00;3.40;;;15.80;74.10;;;;;;5093892;28;20107;-82
2021/09/08 07:24:54;;;;;;;6.68;3.00;;;15.90;73.10;;;;;;5093498;28;20560;-83
2021/09/08 07:27:19;;;;;;;4.75;2.97;;;16.10;72.70;;;;;;5087911;28;20090;-84
2021/09/08 07:29:45;;;;;;;5.60;3.10;;;16.40;71.70;;;;;;5090867;28;20025;-83
2021/09/08 07:32:12;;;;;;;13.48;3.67;;;16.70;70.50;;;;;;5088834;28;20084;-81
2021/09/08 07:34:38;;;;;;;7.25;3.05;;;16.80;69.50;;;;;;5100188;28;20020;-79
2021/09/08 07:37:04;;;;;;;6.18;3.15;;;16.90;68.80;;;;;;5104718;28;20064;-80
2021/09/08 07:39:31;;;;;;;5.35;3.08;;;16.90;67.80;;;;;;5110570;28;20028;-81
2021/09/08 07:41:57;;;;;;;6.43;3.00;;;16.70;68.90;;;;;;5083710;28;20047;-81
2021/09/08 07:44:23;;;;;;;9.60;3.17;;;16.60;68.30;;;;;;5094024;28;20039;-80
2021/09/08 07:46:49;;;;;;;11.45;3.15;;;16.70;69.00;;;;;;5077916;28;20020;-81
2021/09/08 07:49:15;;;;;;;5.28;3.13;;;16.70;68.60;;;;;;5098617;28;20110;-80
2021/09/08 07:51:41;;;;;;;3.55;2.75;;;16.70;68.70;;;;;;5098231;28;20020;-81
2021/09/08 07:54:07;;;;;;;6.47;3.55;;;16.50;68.70;;;;;;5090630;28;20078;-84
2021/09/08 07:56:33;;;;;;;9.15;2.72;;;16.50;69.60;;;;;;5087130;28;20024;-81
2021/09/08 07:58:59;;;;;;;7.07;3.58;;;16.70;69.50;;;;;;5095501;28;20024;-81
2021/09/08 08:01:25;;;;;;;7.20;2.70;;;16.80;68.70;;;;;;5094913;28;20173;-80
2021/09/08 08:03:51;;;;;;;9.85;3.25;;;16.70;68.00;;;;;;5098518;28;20036;-81
2021/09/08 08:06:16;;;;;;;10.18;3.70;;;16.40;69.10;;;;;;5103705;28;20017;-81
2021/09/08 08:08:42;;;;;;;5.32;3.35;;;16.20;68.90;;;;;;5093455;28;20027;-80
2021/09/08 08:11:08;;;;;;;10.82;3.95;;;16.00;69.10;;;;;;5098209;28;20048;-81
2021/09/08 08:13:34;;;;;;;6.97;2.95;;;15.70;70.70;;;;;;5093042;28;20039;-80
2021/09/08 08:16:00;;;;;;;9.00;3.35;;;15.70;71.50;;;;;;5088066;28;20063;-79
2021/09/08 08:18:26;;;;;;;5.82;3.30;;;15.60;71.80;;;;;;5112122;28;20016;-80
2021/09/08 08:20:51;;;;;;;4.60;3.08;;;15.60;72.00;;;;;;5101482;28;20032;-83
2021/09/08 08:23:17;;;;;;;9.10;3.28;;;15.40;71.70;;;;;;5101144;28;20088;-83
2021/09/08 08:25:43;;;;;;;5.15;2.60;;;15.30;71.40;;;;;;5076711;28;20020;-83
2021/09/08 08:28:09;;;;;;;9.57;3.65;;;15.10;72.10;;;;;;5096520;28;20024;-84
2021/09/08 08:30:35;;;;;;;5.85;3.53;;;15.10;72.60;;;;;;5101029;28;20104;-83
2021/09/08 08:33:02;;;;;;;5.35;2.85;;;15.00;73.70;;;;;;5098845;28;20020;-85
2021/09/08 08:35:28;;;;;;;8.80;2.97;;;15.20;73.00;;;;;;5099574;28;20114;-81
2021/09/08 08:37:54;;;;;;;4.60;2.88;;;15.20;73.30;;;;;;5098916;28;20020;-84
2021/09/08 08:40:21;;;;;;;5.10;3.22;;;15.30;71.90;;;;;;5100337;28;20016;-81
2021/09/08 08:42:48;;;;;;;5.47;2.80;;;15.30;72.60;;;;;;5099498;28;20035;-82
2021/09/08 08:45:15;;;;;;;5.20;2.30;;;15.40;71.80;;;;;;5100922;28;20107;-82
2021/09/08 08:47:41;;;;;;;7.65;3.40;;;15.50;71.30;;;;;;5096812;28;20519;-81
2021/09/08 08:50:10;;;;;;;5.85;2.50;;;15.50;71.70;;;;;;5095638;28;20508;-80
2021/09/08 08:52:37;;;;;;;4.40;2.58;;;15.60;72.30;;;;;;5087729;28;20396;-80
2021/09/08 08:55:04;;;;;;;5.18;3.15;;;15.70;71.30;;;;;;5110506;28;20063;-79
2021/09/08 08:57:30;;;;;;;10.83;3.70;;;15.40;71.60;;;;;;5106478;28;20065;-82
2021/09/08 08:59:59;;;;;;;9.77;2.67;;;15.40;72.20;;;;;;5084472;28;20371;-82
2021/09/08 09:02:30;;;;;;;4.32;3.00;;;15.30;71.70;;;;;;5095161;28;20464;-81
2021/09/08 09:04:59;;;;;;;7.63;3.92;;;15.10;72.30;;;;;;5089133;28;20052;-83
2021/09/08 09:07:31;;;;;;;5.95;3.05;;;15.10;73.10;;;;;;5076182;28;20030;-82
2021/09/08 09:10:05;;;;;;;4.68;2.88;;;15.20;73.50;;;;;;5075531;28;20016;-82
2021/09/08 09:12:38;;;;;;;4.68;3.22;;;15.20;72.50;;;;;;5078778;28;20071;-80
2021/09/08 09:15:13;;;;;;;5.90;2.90;;;14.90;73.40;;;;;;5079130;28;20032;-79
2021/09/08 09:17:43;;;;;;;5.35;2.53;;;14.90;74.00;;;;;;5084164;28;20104;-80
2021/09/08 09:20:17;;;;;;;4.88;2.88;;;14.80;74.00;;;;;;5034633;28;20088;-81
2021/09/08 09:22:54;;;;;;;6.90;3.50;;;14.80;74.70;;;;;;5037445;28;20033;-81
2021/09/08 09:25:22;;;;;;;;;;;14.70;74.70;;;;;;5031235;28;20034;-81
2021/09/08 09:27:52;;;;;;;;;;;14.60;74.70;;;;;;5036113;28;19928;-82
2021/09/08 09:30:41;;;;;;;9.77;3.08;;;14.60;74.90;;;;;;5038636;28;19904;-80
2021/09/08 09:33:08;;;;;;;7.50;3.03;;;14.60;75.60;;;;;;5045381;28;20414;-83
2021/09/08 09:35:33;;;;;;;5.18;2.92;;;14.70;75.90;;;;;;5036233;28;20029;-79
2021/09/08 09:38:04;;;;;;;7.32;4.32;;;14.60;76.10;;;;;;5040547;28;20125;-82
2021/09/08 09:40:35;;;;;;;4.82;3.13;;;14.70;76.60;;;;;;5050938;28;20048;-80
2021/09/08 09:43:06;;;;;;;5.93;3.40;;;14.70;76.90;;;;;;5040079;28;20038;-84
2021/09/08 09:45:34;;;;;;;8.27;4.00;;;14.90;76.50;;;;;;5041506;28;20044;-78
2021/09/08 09:48:01;;;;;;;7.65;2.92;;;15.20;76.30;;;;;;5033116;28;20043;-81
2021/09/08 09:50:27;;;;;;;4.75;3.65;;;15.40;75.00;;;;;;5042285;28;20036;-80
2021/09/08 09:52:53;;;;;;;5.85;3.45;;;15.40;74.30;;;;;;5103656;28;20026;-80
2021/09/08 09:55:21;;;;;;;6.57;3.35;;;15.50;74.10;;;;;;5108757;28;20016;-78
2021/09/08 09:57:49;;;;;;;7.75;3.60;;;15.40;74.50;;;;;;5099957;28;20027;-82
2021/09/08 10:00:16;;;;;;;6.00;3.97;;;15.30;74.70;;;;;;5095629;28;20036;-78
2021/09/08 10:02:44;;;;;;;7.93;3.38;;;15.30;75.00;;;;;;5103166;28;20020;-79
2021/09/08 10:05:11;;;;;;;9.82;4.03;;;15.20;75.00;;;;;;5099174;28;20040;-80
2021/09/08 10:07:38;;;;;;;5.63;3.67;;;15.20;74.70;;;;;;5100000;28;20024;-80
2021/09/08 10:10:13;;;;;;;9.10;3.60;;;15.20;74.90;;;;;;5099659;28;20036;-81
2021/09/08 10:12:56;;;;;;;11.60;5.85;;;15.10;75.20;;;;;;5101107;28;20127;-80
2021/09/08 10:15:24;;;;;;;7.07;3.78;;;15.10;75.80;;;;;;5103318;28;20069;-82
2021/09/08 10:17:50;;;;;;;6.50;3.75;;;15.00;75.20;;;;;;5097053;28;20432;-80
2021/09/08 10:20:19;;;;;;;16.35;5.57;;;14.90;75.80;;;;;;5096568;28;20028;-83
2021/09/08 10:22:47;;;;;;;6.68;3.42;;;14.80;76.20;;;;;;5099445;28;20020;-82
2021/09/08 10:25:19;;;;;;;;;;;14.80;76.30;;;;;;5098725;28;20424;-83
2021/09/08 10:27:51;;;;;;;5.97;3.42;;;14.80;76.20;;;;;;5107180;28;19915;-81
2021/09/08 10:30:18;;;;;;;6.95;3.38;;;14.60;76.30;;;;;;5099397;28;20020;-81
2021/09/08 10:32:44;;;;;;;9.98;3.83;;;14.60;76.90;;;;;;5094438;28;20020;-82
2021/09/08 10:35:16;;;;;;;14.07;4.37;;;14.60;77.20;;;;;;5093912;28;20016;-82
2021/09/08 10:37:53;;;;;;;13.93;4.13;;;14.70;77.30;;;;;;5110327;28;20252;-78
2021/09/08 10:40:21;;;;;;;11.40;4.22;;;14.80;77.20;;;;;;5098556;28;20020;-80
2021/09/08 10:42:53;;;;;;;7.95;4.65;;;14.70;76.70;;;;;;5099710;28;20024;-80
2021/09/08 10:45:23;;;;;;;8.35;4.70;;;14.80;76.80;;;;;;5100190;28;20023;-79
2021/09/08 10:47:49;;;;;;;5.00;3.65;;;14.80;77.20;;;;;;5103133;28;20035;-80
2021/09/08 10:50:15;;;;;;;6.15;3.90;;;14.80;77.20;;;;;;5103363;28;20020;-81
2021/09/08 10:52:44;;;;;;;8.43;3.92;;;14.80;76.90;;;;;;5096142;28;20031;-79
2021/09/08 10:55:20;;;;;;;6.35;3.33;;;14.80;77.00;;;;;;5085295;28;20020;-80
2021/09/08 10:57:49;;;;;;;6.97;3.90;;;14.80;77.00;;;;;;5097762;28;20048;-81
2021/09/08 11:00:22;;;;;;;7.20;3.60;;;14.90;76.60;;;;;;5092205;28;20028;-81
2021/09/08 11:02:48;;;;;;;6.47;3.63;;;14.90;76.80;;;;;;5097223;28;20024;-81
2021/09/08 11:05:14;;;;;;;5.30;3.60;;;14.80;76.80;;;;;;5107858;28;20484;-81
2021/09/08 11:07:47;;;;;;;8.07;3.40;;;14.80;76.90;;;;;;5110165;28;20031;-82
2021/09/08 11:10:23;;;;;;;9.50;4.53;;;14.80;77.10;;;;;;5091843;28;20032;-80
2021/09/08 11:12:51;;;;;;;9.10;3.90;;;14.80;77.20;;;;;;5092909;28;20036;-82
2021/09/08 11:15:25;;;;;;;6.25;3.55;;;14.90;77.20;;;;;;5094050;28;20111;-80
2021/09/08 11:17:54;;;;;;;8.48;4.57;;;14.90;77.00;;;;;;5099527;28;20020;-81
2021/09/08 11:20:20;;;;;;;8.98;4.47;;;15.00;76.90;;;;;;5097919;28;20062;-80
2021/09/08 11:23:07;;;;;;;7.35;3.70;;;15.00;77.00;;;;;;5100517;28;20485;-79
2021/09/08 11:25:35;;;;;;;5.15;3.72;;;15.10;76.80;;;;;;5097779;28;20020;-80
2021/09/08 11:28:02;;;;;;;8.18;4.18;;;15.10;76.70;;;;;;5101352;28;20456;-80
2021/09/08 11:30:30;;;;;;;11.40;4.75;;;15.10;76.80;;;;;;5113992;28;20032;-81
2021/09/08 11:33:15;;;;;;;8.75;4.07;;;15.00;77.00;;;;;;5113456;28;20103;-80
2021/09/08 11:35:48;;;;;;;7.05;3.65;;;15.10;77.00;;;;;;5104528;28;20020;-79
2021/09/08 11:38:21;;;;;;;9.27;4.85;;;15.10;76.80;;;;;;5108254;28;20552;-82
2021/09/08 11:40:52;;;;;;;11.10;4.50;;;15.10;77.00;;;;;;5100832;28;20025;-82
2021/09/08 11:43:35;;;;;;;9.43;4.15;;;15.20;76.90;;;;;;5095441;28;20028;-80
2021/09/08 11:46:19;;;;;;;6.22;3.72;;;15.40;76.50;;;;;;5119909;28;20023;-80
2021/09/08 11:48:47;;;;;;;5.90;4.30;;;15.50;75.80;;;;;;5110127;28;20079;-79
2021/09/08 11:51:15;;;;;;;8.63;4.50;;;15.50;75.40;;;;;;5113826;28;20024;-80
2021/09/08 11:53:42;;;;;;;7.93;4.65;;;15.50;75.10;;;;;;5112456;28;20061;-80
2021/09/08 11:56:16;;;;;;;7.53;3.88;;;15.50;75.00;;;;;;5113560;28;20016;-79
2021/09/08 11:58:43;;;;;;;11.60;5.95;;;15.60;75.00;;;;;;5109714;28;20024;-80
2021/09/08 12:01:11;;;;;;;8.38;3.88;;;15.80;75.00;;;;;;5105378;28;20016;-79
2021/09/08 12:03:43;;;;;;;9.63;5.00;;;16.10;74.20;;;;;;5098042;28;20036;-80
2021/09/08 12:06:17;;;;;;;9.27;4.55;;;16.30;73.60;;;;;;5098753;28;20409;-79
2021/09/08 12:08:51;;;;;;;8.82;4.35;;;16.60;73.10;;;;;;5098064;28;20028;-80
2021/09/08 12:11:45;;;;;;;9.40;4.78;;;16.80;72.20;;;;;;5091608;28;20048;-82
2021/09/08 12:14:23;;;;;;;5.10;4.25;;;16.90;71.70;;;;;;5092821;28;20477;-79
2021/09/08 12:16:54;;;;;;;5.30;3.38;;;17.00;70.80;;;;;;5094953;28;20446;-81
2021/09/08 12:19:33;;;;;;;8.23;4.00;;;17.00;70.70;;;;;;5096706;28;20016;-79
2021/09/08 12:22:10;;;;;;;8.48;4.05;;;17.00;70.90;;;;;;5095514;28;20032;-79
2021/09/08 12:24:42;;;;;;;;;;;17.00;70.20;;;;;;5094163;28;20387;-79
2021/09/08 12:27:25;;;;;;;9.85;5.88;;;17.00;70.90;;;;;;5092320;28;19904;-81
2021/09/08 12:30:15;;;;;;;9.88;4.35;;;17.00;70.90;;;;;;5090848;28;20055;-81
2021/09/08 12:33:10;;;;;;;9.70;5.07;;;17.10;70.70;;;;;;5082619;28;20055;-82
2021/09/08 12:35:44;;;;;;;11.93;5.70;;;17.20;70.80;;;;;;5087477;28;20087;-81
2021/09/08 12:38:40;;;;;;;8.65;4.22;;;17.20;70.30;;;;;;5093211;28;20039;-81
2021/09/08 12:41:27;;;;;;;6.05;3.35;;;17.30;69.60;;;;;;5091970;28;20013;-83
2021/09/08 12:43:53;;;;;;;;;;;17.10;69.10;;;;;;5097645;28;20035;-82
2021/09/08 12:46:38;;;;;;;8.10;4.68;;;16.80;70.20;;;;;;5096111;28;19908;-81
2021/09/08 12:49:05;;;;;;;15.30;4.57;;;16.80;70.80;;;;;;5099354;28;20257;-81
2021/09/08 12:51:31;;;;;;;8.20;4.82;;;16.80;70.80;;;;;;5101133;28;20028;-79